sensor_id;sensor_type;location;lat;lon;timestamp;temperature;humidity
5940;DHT22;2995;-31.998;115.906;2024-02-21T00:00:16;26.80;99.90
5940;DHT22;2995;-31.998;115.906;2024-02-21T00:02:47;27.20;99.90
5940;DHT22;2995;-31.998;115.906;2024-02-21T00:05:19;27.30;99.90
5940;DHT22;2995;-31.998;115.906;2024-02-21T00:07:50;27.20;99.90
5940;DHT22;2995;-31.998;115.906;2024-02-21T00:10:21;27.40;99.90
5940;DHT22;2995;-31.998;115.906;2024-02-21T00:12:53;27.50;99.90
5940;DHT22;2995;-31.998;115.906;2024-02-21T00:15:26;27.50;99.90
5940;DHT22;2995;-31.998;115.906;2024-02-21T00:17:57;27.50;99.90
5940;DHT22;2995;-31.998;115.906;2024-02-21T00:20:28;27.70;99.90
5940;DHT22;2995;-31.998;115.906;2024-02-21T00:23:00;27.90;99.90
5940;DHT22;2995;-31.998;115.906;2024-02-21T00:25:31;28.20;99.90
5940;DHT22;2995;-31.998;115.906;2024-02-21T00:28:02;28.10;99.90
5940;DHT22;2995;-31.998;115.906;2024-02-21T00:30:35;28.00;99.90
5940;DHT22;2995;-31.998;115.906;2024-02-21T00:33:08;27.70;99.90
5940;DHT22;2995;-31.998;115.906;2024-02-21T00:35:39;27.60;99.90
5940;DHT22;2995;-31.998;115.906;2024-02-21T00:38:10;27.60;99.90
5940;DHT22;2995;-31.998;115.906;2024-02-21T00:40:42;27.50;99.90
5940;DHT22;2995;-31.998;115.906;2024-02-21T00:43:14;27.60;99.90
5940;DHT22;2995;-31.998;115.906;2024-02-21T00:45:47;27.50;99.90
5940;DHT22;2995;-31.998;115.906;2024-02-21T00:48:18;27.50;99.90
5940;DHT22;2995;-31.998;115.906;2024-02-21T00:50:50;27.30;99.90
5940;DHT22;2995;-31.998;115.906;2024-02-21T00:53:21;27.50;99.90
5940;DHT22;2995;-31.998;115.906;2024-02-21T00:55:52;27.80;99.90
5940;DHT22;2995;-31.998;115.906;2024-02-21T00:58:25;27.90;99.90
5940;DHT22;2995;-31.998;115.906;2024-02-21T01:00:58;27.90;99.90
5940;DHT22;2995;-31.998;115.906;2024-02-21T01:03:29;27.90;99.90
5940;DHT22;2995;-31.998;115.906;2024-02-21T01:06:00;28.00;99.90
5940;DHT22;2995;-31.998;115.906;2024-02-21T01:08:31;27.90;99.90
5940;DHT22;2995;-31.998;115.906;2024-02-21T01:11:03;27.90;99.90
5940;DHT22;2995;-31.998;115.906;2024-02-21T01:13:34;28.00;99.90
5940;DHT22;2995;-31.998;115.906;2024-02-21T01:16:07;28.10;99.90
5940;DHT22;2995;-31.998;115.906;2024-02-21T01:18:39;28.10;99.90
5940;DHT22;2995;-31.998;115.906;2024-02-21T01:21:10;28.40;99.90
5940;DHT22;2995;-31.998;115.906;2024-02-21T01:23:41;29.40;99.90
5940;DHT22;2995;-31.998;115.906;2024-02-21T01:26:13;29.80;99.90
5940;DHT22;2995;-31.998;115.906;2024-02-21T01:28:44;29.40;99.90
5940;DHT22;2995;-31.998;115.906;2024-02-21T01:31:17;29.70;99.90
5940;DHT22;2995;-31.998;115.906;2024-02-21T01:33:48;29.50;99.90
5940;DHT22;2995;-31.998;115.906;2024-02-21T01:36:19;29.60;99.90
5940;DHT22;2995;-31.998;115.906;2024-02-21T01:38:51;30.10;99.90
5940;DHT22;2995;-31.998;115.906;2024-02-21T01:41:22;30.10;99.90
5940;DHT22;2995;-31.998;115.906;2024-02-21T01:43:53;29.70;99.90
5940;DHT22;2995;-31.998;115.906;2024-02-21T01:46:27;30.00;99.90
5940;DHT22;2995;-31.998;115.906;2024-02-21T01:48:59;30.20;99.90
5940;DHT22;2995;-31.998;115.906;2024-02-21T01:51:30;30.70;99.90
5940;DHT22;2995;-31.998;115.906;2024-02-21T01:54:02;30.80;99.90
5940;DHT22;2995;-31.998;115.906;2024-02-21T01:56:33;31.00;99.90
5940;DHT22;2995;-31.998;115.906;2024-02-21T01:59:04;30.90;99.90
5940;DHT22;2995;-31.998;115.906;2024-02-21T02:01:37;31.00;99.90
5940;DHT22;2995;-31.998;115.906;2024-02-21T02:04:10;31.10;99.90
5940;DHT22;2995;-31.998;115.906;2024-02-21T02:06:42;31.00;99.90
5940;DHT22;2995;-31.998;115.906;2024-02-21T02:09:14;31.20;99.90
5940;DHT22;2995;-31.998;115.906;2024-02-21T02:11:45;31.10;99.90
5940;DHT22;2995;-31.998;115.906;2024-02-21T02:14:16;31.10;99.90
5940;DHT22;2995;-31.998;115.906;2024-02-21T02:16:50;31.20;99.90
5940;DHT22;2995;-31.998;115.906;2024-02-21T02:19:21;31.10;99.90
5940;DHT22;2995;-31.998;115.906;2024-02-21T02:21:56;31.50;99.90
5940;DHT22;2995;-31.998;115.906;2024-02-21T02:24:32;31.50;99.90
5940;DHT22;2995;-31.998;115.906;2024-02-21T02:27:03;32.00;99.90
5940;DHT22;2995;-31.998;115.906;2024-02-21T02:29:35;31.70;99.90
5940;DHT22;2995;-31.998;115.906;2024-02-21T02:32:06;31.70;99.90
5940;DHT22;2995;-31.998;115.906;2024-02-21T02:34:37;31.90;99.90
5940;DHT22;2995;-31.998;115.906;2024-02-21T02:37:09;31.80;99.90
5940;DHT22;2995;-31.998;115.906;2024-02-21T02:39:43;31.90;99.90
5940;DHT22;2995;-31.998;115.906;2024-02-21T02:42:15;31.50;99.90
5940;DHT22;2995;-31.998;115.906;2024-02-21T02:44:46;31.40;99.90
5940;DHT22;2995;-31.998;115.906;2024-02-21T02:47:17;31.30;99.90
5940;DHT22;2995;-31.998;115.906;2024-02-21T02:49:48;31.60;99.90
5940;DHT22;2995;-31.998;115.906;2024-02-21T02:52:20;31.20;99.90
5940;DHT22;2995;-31.998;115.906;2024-02-21T02:54:53;31.30;99.90
5940;DHT22;2995;-31.998;115.906;2024-02-21T02:57:24;31.20;99.90
5940;DHT22;2995;-31.998;115.906;2024-02-21T02:59:55;31.10;99.90
5940;DHT22;2995;-31.998;115.906;2024-02-21T03:02:26;31.40;99.90
5940;DHT22;2995;-31.998;115.906;2024-02-21T03:04:58;31.30;99.90
5940;DHT22;2995;-31.998;115.906;2024-02-21T03:07:29;31.40;99.90
5940;DHT22;2995;-31.998;115.906;2024-02-21T03:10:02;31.60;99.90
5940;DHT22;2995;-31.998;115.906;2024-02-21T03:12:33;32.00;99.90
5940;DHT22;2995;-31.998;115.906;2024-02-21T03:15:05;31.70;99.90
5940;DHT22;2995;-31.998;115.906;2024-02-21T03:17:36;31.40;99.90
5940;DHT22;2995;-31.998;115.906;2024-02-21T03:20:09;31.40;99.90
5940;DHT22;2995;-31.998;115.906;2024-02-21T03:22:40;31.60;99.90
5940;DHT22;2995;-31.998;115.906;2024-02-21T03:25:14;31.60;99.90
5940;DHT22;2995;-31.998;115.906;2024-02-21T03:27:45;31.30;99.90
5940;DHT22;2995;-31.998;115.906;2024-02-21T03:30:16;31.30;99.90
5940;DHT22;2995;-31.998;115.906;2024-02-21T03:32:47;31.00;99.90
5940;DHT22;2995;-31.998;115.906;2024-02-21T03:35:19;31.40;99.90
5940;DHT22;2995;-31.998;115.906;2024-02-21T03:37:50;31.70;99.90
5940;DHT22;2995;-31.998;115.906;2024-02-21T03:40:23;31.70;99.90
5940;DHT22;2995;-31.998;115.906;2024-02-21T03:42:54;32.20;99.90
5940;DHT22;2995;-31.998;115.906;2024-02-21T03:45:25;31.90;99.90
5940;DHT22;2995;-31.998;115.906;2024-02-21T03:47:57;32.00;99.90
5940;DHT22;2995;-31.998;115.906;2024-02-21T03:50:28;32.00;99.90
5940;DHT22;2995;-31.998;115.906;2024-02-21T03:52:59;32.30;99.90
5940;DHT22;2995;-31.998;115.906;2024-02-21T03:55:32;32.30;99.90
5940;DHT22;2995;-31.998;115.906;2024-02-21T03:58:02;32.20;99.90
5940;DHT22;2995;-31.998;115.906;2024-02-21T04:00:33;32.60;99.90
5940;DHT22;2995;-31.998;115.906;2024-02-21T04:03:04;32.70;99.90
5940;DHT22;2995;-31.998;115.906;2024-02-21T04:05:36;32.60;99.90
5940;DHT22;2995;-31.998;115.906;2024-02-21T04:08:07;32.90;99.90
5940;DHT22;2995;-31.998;115.906;2024-02-21T04:10:40;33.10;99.90
5940;DHT22;2995;-31.998;115.906;2024-02-21T04:13:12;32.60;99.90
5940;DHT22;2995;-31.998;115.906;2024-02-21T04:15:43;32.60;99.90
5940;DHT22;2995;-31.998;115.906;2024-02-21T04:18:15;32.30;99.90
5940;DHT22;2995;-31.998;115.906;2024-02-21T04:20:46;32.70;99.90
5940;DHT22;2995;-31.998;115.906;2024-02-21T04:23:17;32.60;99.90
5940;DHT22;2995;-31.998;115.906;2024-02-21T04:25:50;32.60;99.90
5940;DHT22;2995;-31.998;115.906;2024-02-21T04:28:22;32.30;99.90
5940;DHT22;2995;-31.998;115.906;2024-02-21T04:30:53;32.40;99.90
5940;DHT22;2995;-31.998;115.906;2024-02-21T04:33:24;32.20;99.90
5940;DHT22;2995;-31.998;115.906;2024-02-21T04:35:55;32.10;99.90
5940;DHT22;2995;-31.998;115.906;2024-02-21T04:38:27;32.10;99.90
5940;DHT22;2995;-31.998;115.906;2024-02-21T04:41:00;32.60;99.90
5940;DHT22;2995;-31.998;115.906;2024-02-21T04:43:32;32.20;99.90
5940;DHT22;2995;-31.998;115.906;2024-02-21T04:46:04;32.40;99.90
5940;DHT22;2995;-31.998;115.906;2024-02-21T04:48:35;32.50;99.90
5940;DHT22;2995;-31.998;115.906;2024-02-21T04:51:06;32.60;99.90
5940;DHT22;2995;-31.998;115.906;2024-02-21T04:53:37;32.70;99.90
5940;DHT22;2995;-31.998;115.906;2024-02-21T04:56:11;32.70;99.90
5940;DHT22;2995;-31.998;115.906;2024-02-21T04:58:43;32.70;99.90
5940;DHT22;2995;-31.998;115.906;2024-02-21T05:01:14;32.40;99.90
5940;DHT22;2995;-31.998;115.906;2024-02-21T05:03:45;32.60;99.90
5940;DHT22;2995;-31.998;115.906;2024-02-21T05:06:16;32.10;99.90
5940;DHT22;2995;-31.998;115.906;2024-02-21T05:08:48;32.10;99.90
5940;DHT22;2995;-31.998;115.906;2024-02-21T05:11:21;32.40;99.90
5940;DHT22;2995;-31.998;115.906;2024-02-21T05:13:52;32.30;99.90
5940;DHT22;2995;-31.998;115.906;2024-02-21T05:16:24;32.90;99.90
5940;DHT22;2995;-31.998;115.906;2024-02-21T05:18:55;32.60;99.90
5940;DHT22;2995;-31.998;115.906;2024-02-21T05:21:26;32.40;99.90
5940;DHT22;2995;-31.998;115.906;2024-02-21T05:23:58;32.20;99.90
5940;DHT22;2995;-31.998;115.906;2024-02-21T05:26:31;31.70;99.90
5940;DHT22;2995;-31.998;115.906;2024-02-21T05:29:02;31.90;99.90
5940;DHT22;2995;-31.998;115.906;2024-02-21T05:31:56;32.40;99.90
5940;DHT22;2995;-31.998;115.906;2024-02-21T05:34:27;32.60;99.90
5940;DHT22;2995;-31.998;115.906;2024-02-21T05:36:59;32.60;99.90
5940;DHT22;2995;-31.998;115.906;2024-02-21T05:39:30;32.30;99.90
5940;DHT22;2995;-31.998;115.906;2024-02-21T05:42:03;32.50;99.90
5940;DHT22;2995;-31.998;115.906;2024-02-21T05:44:34;32.30;99.90
5940;DHT22;2995;-31.998;115.906;2024-02-21T05:47:06;32.10;99.90
5940;DHT22;2995;-31.998;115.906;2024-02-21T05:49:39;32.20;99.90
5940;DHT22;2995;-31.998;115.906;2024-02-21T05:52:10;32.10;99.90
5940;DHT22;2995;-31.998;115.906;2024-02-21T05:54:41;32.30;99.90
5940;DHT22;2995;-31.998;115.906;2024-02-21T05:57:15;31.80;99.90
5940;DHT22;2995;-31.998;115.906;2024-02-21T05:59:47;31.60;99.90
5940;DHT22;2995;-31.998;115.906;2024-02-21T06:02:18;31.00;99.90
5940;DHT22;2995;-31.998;115.906;2024-02-21T06:04:50;30.90;99.90
5940;DHT22;2995;-31.998;115.906;2024-02-21T06:07:21;30.80;99.90
5940;DHT22;2995;-31.998;115.906;2024-02-21T06:09:52;30.70;99.90
5940;DHT22;2995;-31.998;115.906;2024-02-21T06:12:25;30.30;99.90
5940;DHT22;2995;-31.998;115.906;2024-02-21T06:14:56;29.60;99.90
5940;DHT22;2995;-31.998;115.906;2024-02-21T06:17:28;29.40;99.90
5940;DHT22;2995;-31.998;115.906;2024-02-21T06:19:59;29.60;99.90
5940;DHT22;2995;-31.998;115.906;2024-02-21T06:22:30;30.10;99.90
5940;DHT22;2995;-31.998;115.906;2024-02-21T06:25:01;30.10;99.90
5940;DHT22;2995;-31.998;115.906;2024-02-21T06:27:35;29.90;99.90
5940;DHT22;2995;-31.998;115.906;2024-02-21T06:30:07;30.40;99.90
5940;DHT22;2995;-31.998;115.906;2024-02-21T06:32:38;29.90;99.90
5940;DHT22;2995;-31.998;115.906;2024-02-21T06:35:09;30.20;99.90
5940;DHT22;2995;-31.998;115.906;2024-02-21T06:37:41;30.10;99.90
5940;DHT22;2995;-31.998;115.906;2024-02-21T06:40:13;30.20;99.90
5940;DHT22;2995;-31.998;115.906;2024-02-21T06:42:47;30.30;99.90
5940;DHT22;2995;-31.998;115.906;2024-02-21T06:45:18;30.40;99.90
5940;DHT22;2995;-31.998;115.906;2024-02-21T06:47:49;30.60;99.90
5940;DHT22;2995;-31.998;115.906;2024-02-21T06:50:20;30.40;99.90
5940;DHT22;2995;-31.998;115.906;2024-02-21T06:52:52;30.30;99.90
5940;DHT22;2995;-31.998;115.906;2024-02-21T06:55:23;30.70;99.90
5940;DHT22;2995;-31.998;115.906;2024-02-21T06:57:56;30.40;99.90
5940;DHT22;2995;-31.998;115.906;2024-02-21T07:00:27;30.20;99.90
5940;DHT22;2995;-31.998;115.906;2024-02-21T07:02:59;30.40;99.90
5940;DHT22;2995;-31.998;115.906;2024-02-21T07:05:30;30.00;99.90
5940;DHT22;2995;-31.998;115.906;2024-02-21T07:08:01;30.20;99.90
5940;DHT22;2995;-31.998;115.906;2024-02-21T07:10:33;30.10;99.90
5940;DHT22;2995;-31.998;115.906;2024-02-21T07:13:06;30.00;99.90
5940;DHT22;2995;-31.998;115.906;2024-02-21T07:15:38;30.00;99.90
5940;DHT22;2995;-31.998;115.906;2024-02-21T07:18:09;29.80;99.90
5940;DHT22;2995;-31.998;115.906;2024-02-21T07:20:40;29.70;99.90
5940;DHT22;2995;-31.998;115.906;2024-02-21T07:23:11;30.00;99.90
5940;DHT22;2995;-31.998;115.906;2024-02-21T07:25:43;30.10;99.90
5940;DHT22;2995;-31.998;115.906;2024-02-21T07:28:16;30.00;99.90
5940;DHT22;2995;-31.998;115.906;2024-02-21T07:30:47;29.80;99.90
5940;DHT22;2995;-31.998;115.906;2024-02-21T07:33:18;29.70;99.90
5940;DHT22;2995;-31.998;115.906;2024-02-21T07:35:49;30.00;99.90
5940;DHT22;2995;-31.998;115.906;2024-02-21T07:38:21;30.10;99.90
5940;DHT22;2995;-31.998;115.906;2024-02-21T07:40:52;29.60;99.90
5940;DHT22;2995;-31.998;115.906;2024-02-21T07:43:25;29.50;99.90
5940;DHT22;2995;-31.998;115.906;2024-02-21T07:45:56;29.20;99.90
5940;DHT22;2995;-31.998;115.906;2024-02-21T07:48:27;28.90;99.90
5940;DHT22;2995;-31.998;115.906;2024-02-21T07:50:59;28.90;99.90
5940;DHT22;2995;-31.998;115.906;2024-02-21T07:53:30;28.60;99.90
5940;DHT22;2995;-31.998;115.906;2024-02-21T07:56:01;28.60;99.90
5940;DHT22;2995;-31.998;115.906;2024-02-21T07:58:35;28.50;99.90
5940;DHT22;2995;-31.998;115.906;2024-02-21T08:01:06;28.40;99.90
5940;DHT22;2995;-31.998;115.906;2024-02-21T08:03:37;28.60;99.90
5940;DHT22;2995;-31.998;115.906;2024-02-21T08:06:13;28.70;99.90
5940;DHT22;2995;-31.998;115.906;2024-02-21T08:08:44;28.40;99.90
5940;DHT22;2995;-31.998;115.906;2024-02-21T08:11:16;28.30;99.90
5940;DHT22;2995;-31.998;115.906;2024-02-21T08:13:49;28.30;99.90
5940;DHT22;2995;-31.998;115.906;2024-02-21T08:16:20;28.30;99.90
5940;DHT22;2995;-31.998;115.906;2024-02-21T08:18:51;28.20;99.90
5940;DHT22;2995;-31.998;115.906;2024-02-21T08:21:22;28.30;99.90
5940;DHT22;2995;-31.998;115.906;2024-02-21T08:23:54;28.20;99.90
5940;DHT22;2995;-31.998;115.906;2024-02-21T08:26:26;28.10;99.90
5940;DHT22;2995;-31.998;115.906;2024-02-21T08:29:00;28.20;99.90
5940;DHT22;2995;-31.998;115.906;2024-02-21T08:31:32;28.10;99.90
5940;DHT22;2995;-31.998;115.906;2024-02-21T08:34:03;28.20;99.90
5940;DHT22;2995;-31.998;115.906;2024-02-21T08:36:35;28.10;99.90
5940;DHT22;2995;-31.998;115.906;2024-02-21T08:39:06;27.90;99.90
5940;DHT22;2995;-31.998;115.906;2024-02-21T08:41:39;27.70;99.90
5940;DHT22;2995;-31.998;115.906;2024-02-21T08:44:12;27.60;99.90
5940;DHT22;2995;-31.998;115.906;2024-02-21T08:46:43;27.70;99.90
5940;DHT22;2995;-31.998;115.906;2024-02-21T08:49:15;27.60;99.90
5940;DHT22;2995;-31.998;115.906;2024-02-21T08:51:46;27.60;99.90
5940;DHT22;2995;-31.998;115.906;2024-02-21T08:54:17;27.40;99.90
5940;DHT22;2995;-31.998;115.906;2024-02-21T08:56:48;27.20;99.90
5940;DHT22;2995;-31.998;115.906;2024-02-21T08:59:22;27.40;99.90
5940;DHT22;2995;-31.998;115.906;2024-02-21T09:01:54;27.40;99.90
5940;DHT22;2995;-31.998;115.906;2024-02-21T09:04:25;27.20;99.90
5940;DHT22;2995;-31.998;115.906;2024-02-21T09:06:56;27.20;99.90
5940;DHT22;2995;-31.998;115.906;2024-02-21T09:09:27;27.00;99.90
5940;DHT22;2995;-31.998;115.906;2024-02-21T09:12:01;27.10;99.90
5940;DHT22;2995;-31.998;115.906;2024-02-21T09:14:36;26.90;99.90
5940;DHT22;2995;-31.998;115.906;2024-02-21T09:17:08;27.00;99.90
5940;DHT22;2995;-31.998;115.906;2024-02-21T09:19:40;27.10;99.90
5940;DHT22;2995;-31.998;115.906;2024-02-21T09:22:11;26.90;99.90
5940;DHT22;2995;-31.998;115.906;2024-02-21T09:24:43;26.70;99.90
5940;DHT22;2995;-31.998;115.906;2024-02-21T09:27:14;26.70;99.90
5940;DHT22;2995;-31.998;115.906;2024-02-21T09:29:47;26.70;99.90
5940;DHT22;2995;-31.998;115.906;2024-02-21T09:32:19;26.60;99.90
5940;DHT22;2995;-31.998;115.906;2024-02-21T09:34:50;26.40;99.90
5940;DHT22;2995;-31.998;115.906;2024-02-21T09:37:22;26.20;99.90
5940;DHT22;2995;-31.998;115.906;2024-02-21T09:39:53;26.10;99.90
5940;DHT22;2995;-31.998;115.906;2024-02-21T09:42:31;26.20;99.90
5940;DHT22;2995;-31.998;115.906;2024-02-21T09:45:21;26.10;99.90
5940;DHT22;2995;-31.998;115.906;2024-02-21T09:48:06;26.10;99.90
5940;DHT22;2995;-31.998;115.906;2024-02-21T09:50:41;25.90;99.90
5940;DHT22;2995;-31.998;115.906;2024-02-21T09:53:14;26.10;99.90
5940;DHT22;2995;-31.998;115.906;2024-02-21T09:55:46;26.00;99.90
5940;DHT22;2995;-31.998;115.906;2024-02-21T09:58:17;25.90;99.90
5940;DHT22;2995;-31.998;115.906;2024-02-21T10:00:51;25.90;99.90
5940;DHT22;2995;-31.998;115.906;2024-02-21T10:03:22;26.00;99.90
5940;DHT22;2995;-31.998;115.906;2024-02-21T10:05:53;26.00;99.90
5940;DHT22;2995;-31.998;115.906;2024-02-21T10:08:24;26.10;99.90
5940;DHT22;2995;-31.998;115.906;2024-02-21T10:10:56;25.80;99.90
5940;DHT22;2995;-31.998;115.906;2024-02-21T10:13:28;25.40;99.90
5940;DHT22;2995;-31.998;115.906;2024-02-21T10:16:06;25.20;99.90
5940;DHT22;2995;-31.998;115.906;2024-02-21T10:18:37;25.00;99.90
5940;DHT22;2995;-31.998;115.906;2024-02-21T10:21:08;25.10;99.90
5940;DHT22;2995;-31.998;115.906;2024-02-21T10:23:44;25.10;99.90
5940;DHT22;2995;-31.998;115.906;2024-02-21T10:26:16;25.10;99.90
5940;DHT22;2995;-31.998;115.906;2024-02-21T10:28:48;25.20;99.90
5940;DHT22;2995;-31.998;115.906;2024-02-21T10:31:27;25.10;99.90
5940;DHT22;2995;-31.998;115.906;2024-02-21T10:34:00;25.00;99.90
5940;DHT22;2995;-31.998;115.906;2024-02-21T10:36:33;25.10;99.90
5940;DHT22;2995;-31.998;115.906;2024-02-21T10:39:04;25.00;99.90
5940;DHT22;2995;-31.998;115.906;2024-02-21T10:41:38;25.00;99.90
5940;DHT22;2995;-31.998;115.906;2024-02-21T10:44:10;24.80;99.90
5940;DHT22;2995;-31.998;115.906;2024-02-21T10:46:45;24.70;99.90
5940;DHT22;2995;-31.998;115.906;2024-02-21T10:49:22;24.80;99.90
5940;DHT22;2995;-31.998;115.906;2024-02-21T10:52:01;24.50;99.90
5940;DHT22;2995;-31.998;115.906;2024-02-21T10:54:44;24.50;99.90
5940;DHT22;2995;-31.998;115.906;2024-02-21T10:57:16;24.30;99.90
5940;DHT22;2995;-31.998;115.906;2024-02-21T10:59:49;24.40;99.90
5940;DHT22;2995;-31.998;115.906;2024-02-21T11:02:23;24.40;99.90
5940;DHT22;2995;-31.998;115.906;2024-02-21T11:04:56;24.20;99.90
5940;DHT22;2995;-31.998;115.906;2024-02-21T11:07:28;24.10;99.90
5940;DHT22;2995;-31.998;115.906;2024-02-21T11:10:00;24.20;99.90
5940;DHT22;2995;-31.998;115.906;2024-02-21T11:12:33;24.10;99.90
5940;DHT22;2995;-31.998;115.906;2024-02-21T11:15:08;23.80;99.90
5940;DHT22;2995;-31.998;115.906;2024-02-21T11:17:41;23.70;99.90
5940;DHT22;2995;-31.998;115.906;2024-02-21T11:20:13;23.80;99.90
5940;DHT22;2995;-31.998;115.906;2024-02-21T11:22:45;23.90;99.90
5940;DHT22;2995;-31.998;115.906;2024-02-21T11:25:23;23.70;99.90
5940;DHT22;2995;-31.998;115.906;2024-02-21T11:28:01;23.70;99.90
5940;DHT22;2995;-31.998;115.906;2024-02-21T11:30:32;23.50;99.90
5940;DHT22;2995;-31.998;115.906;2024-02-21T11:33:08;23.50;99.90
5940;DHT22;2995;-31.998;115.906;2024-02-21T11:35:39;23.50;99.90
5940;DHT22;2995;-31.998;115.906;2024-02-21T11:38:11;23.50;99.90
5940;DHT22;2995;-31.998;115.906;2024-02-21T11:40:45;23.40;99.90
5940;DHT22;2995;-31.998;115.906;2024-02-21T11:43:17;23.40;99.90
5940;DHT22;2995;-31.998;115.906;2024-02-21T11:45:48;23.40;99.90
5940;DHT22;2995;-31.998;115.906;2024-02-21T11:48:22;23.50;99.90
5940;DHT22;2995;-31.998;115.906;2024-02-21T11:50:56;23.40;99.90
5940;DHT22;2995;-31.998;115.906;2024-02-21T11:53:28;23.30;99.90
5940;DHT22;2995;-31.998;115.906;2024-02-21T11:56:01;23.20;99.90
5940;DHT22;2995;-31.998;115.906;2024-02-21T11:58:32;23.30;99.90
5940;DHT22;2995;-31.998;115.906;2024-02-21T12:01:04;23.30;99.90
5940;DHT22;2995;-31.998;115.906;2024-02-21T12:03:37;23.10;99.90
5940;DHT22;2995;-31.998;115.906;2024-02-21T12:06:09;23.20;99.90
5940;DHT22;2995;-31.998;115.906;2024-02-21T12:08:44;23.10;99.90
5940;DHT22;2995;-31.998;115.906;2024-02-21T12:11:21;23.10;99.90
5940;DHT22;2995;-31.998;115.906;2024-02-21T12:14:02;23.00;99.90
5940;DHT22;2995;-31.998;115.906;2024-02-21T12:16:34;23.00;99.90
5940;DHT22;2995;-31.998;115.906;2024-02-21T12:19:08;22.90;99.90
5940;DHT22;2995;-31.998;115.906;2024-02-21T12:21:41;22.80;99.90
5940;DHT22;2995;-31.998;115.906;2024-02-21T12:24:20;22.80;99.90
5940;DHT22;2995;-31.998;115.906;2024-02-21T12:26:52;22.70;99.90
5940;DHT22;2995;-31.998;115.906;2024-02-21T12:29:25;22.80;99.90
5940;DHT22;2995;-31.998;115.906;2024-02-21T12:31:56;22.70;99.90
5940;DHT22;2995;-31.998;115.906;2024-02-21T12:34:30;22.60;99.90
5940;DHT22;2995;-31.998;115.906;2024-02-21T12:37:01;22.60;99.90
5940;DHT22;2995;-31.998;115.906;2024-02-21T12:39:33;22.60;99.90
5940;DHT22;2995;-31.998;115.906;2024-02-21T12:42:06;22.70;99.90
5940;DHT22;2995;-31.998;115.906;2024-02-21T12:44:38;22.70;99.90
5940;DHT22;2995;-31.998;115.906;2024-02-21T12:47:10;22.80;99.90
5940;DHT22;2995;-31.998;115.906;2024-02-21T12:49:43;22.70;99.90
5940;DHT22;2995;-31.998;115.906;2024-02-21T12:52:14;22.60;99.90
5940;DHT22;2995;-31.998;115.906;2024-02-21T12:54:46;22.60;99.90
5940;DHT22;2995;-31.998;115.906;2024-02-21T12:57:18;22.70;99.90
5940;DHT22;2995;-31.998;115.906;2024-02-21T12:59:50;22.70;99.90
5940;DHT22;2995;-31.998;115.906;2024-02-21T13:02:21;22.60;99.90
5940;DHT22;2995;-31.998;115.906;2024-02-21T13:04:54;22.60;99.90
5940;DHT22;2995;-31.998;115.906;2024-02-21T13:07:25;22.60;99.90
5940;DHT22;2995;-31.998;115.906;2024-02-21T13:09:57;22.50;99.90
5940;DHT22;2995;-31.998;115.906;2024-02-21T13:12:28;22.60;99.90
5940;DHT22;2995;-31.998;115.906;2024-02-21T13:14:59;22.50;99.90
5940;DHT22;2995;-31.998;115.906;2024-02-21T13:17:30;22.50;99.90
5940;DHT22;2995;-31.998;115.906;2024-02-21T13:20:04;22.40;99.90
5940;DHT22;2995;-31.998;115.906;2024-02-21T13:22:36;22.50;99.90
5940;DHT22;2995;-31.998;115.906;2024-02-21T13:25:07;22.60;99.90
5940;DHT22;2995;-31.998;115.906;2024-02-21T13:27:40;22.50;99.90
5940;DHT22;2995;-31.998;115.906;2024-02-21T13:30:11;22.50;99.90
5940;DHT22;2995;-31.998;115.906;2024-02-21T13:32:44;22.40;99.90
5940;DHT22;2995;-31.998;115.906;2024-02-21T13:35:18;22.40;99.90
5940;DHT22;2995;-31.998;115.906;2024-02-21T13:37:49;22.40;99.90
5940;DHT22;2995;-31.998;115.906;2024-02-21T13:40:20;22.50;99.90
5940;DHT22;2995;-31.998;115.906;2024-02-21T13:42:53;22.50;99.90
5940;DHT22;2995;-31.998;115.906;2024-02-21T13:45:24;22.40;99.90
5940;DHT22;2995;-31.998;115.906;2024-02-21T13:47:56;22.40;99.90
5940;DHT22;2995;-31.998;115.906;2024-02-21T13:50:31;22.40;99.90
5940;DHT22;2995;-31.998;115.906;2024-02-21T13:53:10;22.50;99.90
5940;DHT22;2995;-31.998;115.906;2024-02-21T13:55:41;22.40;99.90
5940;DHT22;2995;-31.998;115.906;2024-02-21T13:58:13;22.30;99.90
5940;DHT22;2995;-31.998;115.906;2024-02-21T14:00:44;22.40;99.90
5940;DHT22;2995;-31.998;115.906;2024-02-21T14:03:20;22.50;99.90
5940;DHT22;2995;-31.998;115.906;2024-02-21T14:05:53;22.30;99.90
5940;DHT22;2995;-31.998;115.906;2024-02-21T14:08:24;22.20;99.90
5940;DHT22;2995;-31.998;115.906;2024-02-21T14:10:55;22.30;99.90
5940;DHT22;2995;-31.998;115.906;2024-02-21T14:13:27;22.20;99.90
5940;DHT22;2995;-31.998;115.906;2024-02-21T14:15:59;22.10;99.90
5940;DHT22;2995;-31.998;115.906;2024-02-21T14:18:30;22.20;99.90
5940;DHT22;2995;-31.998;115.906;2024-02-21T14:21:03;22.20;99.90
5940;DHT22;2995;-31.998;115.906;2024-02-21T14:23:34;22.10;99.90
5940;DHT22;2995;-31.998;115.906;2024-02-21T14:26:05;22.00;99.90
5940;DHT22;2995;-31.998;115.906;2024-02-21T14:28:37;21.80;99.90
5940;DHT22;2995;-31.998;115.906;2024-02-21T14:31:08;21.80;99.90
5940;DHT22;2995;-31.998;115.906;2024-02-21T14:33:39;21.90;99.90
5940;DHT22;2995;-31.998;115.906;2024-02-21T14:36:13;21.80;99.90
5940;DHT22;2995;-31.998;115.906;2024-02-21T14:38:44;21.70;99.90
5940;DHT22;2995;-31.998;115.906;2024-02-21T14:41:16;21.60;99.90
5940;DHT22;2995;-31.998;115.906;2024-02-21T14:43:48;21.60;99.90
5940;DHT22;2995;-31.998;115.906;2024-02-21T14:46:19;21.60;99.90
5940;DHT22;2995;-31.998;115.906;2024-02-21T14:48:50;21.60;99.90
5940;DHT22;2995;-31.998;115.906;2024-02-21T14:51:24;21.50;99.90
5940;DHT22;2995;-31.998;115.906;2024-02-21T14:53:55;21.30;99.90
5940;DHT22;2995;-31.998;115.906;2024-02-21T14:56:26;21.30;99.90
5940;DHT22;2995;-31.998;115.906;2024-02-21T14:58:57;21.30;99.90
5940;DHT22;2995;-31.998;115.906;2024-02-21T15:01:28;21.30;99.90
5940;DHT22;2995;-31.998;115.906;2024-02-21T15:04:00;21.30;99.90
5940;DHT22;2995;-31.998;115.906;2024-02-21T15:06:33;21.30;99.90
5940;DHT22;2995;-31.998;115.906;2024-02-21T15:09:05;21.30;99.90
5940;DHT22;2995;-31.998;115.906;2024-02-21T15:11:36;21.20;99.90
5940;DHT22;2995;-31.998;115.906;2024-02-21T15:14:07;21.20;99.90
5940;DHT22;2995;-31.998;115.906;2024-02-21T15:16:39;21.10;99.90
5940;DHT22;2995;-31.998;115.906;2024-02-21T15:19:10;21.10;99.90
5940;DHT22;2995;-31.998;115.906;2024-02-21T15:21:43;21.00;99.90
5940;DHT22;2995;-31.998;115.906;2024-02-21T15:24:15;20.90;99.90
5940;DHT22;2995;-31.998;115.906;2024-02-21T15:26:47;21.00;99.90
5940;DHT22;2995;-31.998;115.906;2024-02-21T15:29:18;20.90;99.90
5940;DHT22;2995;-31.998;115.906;2024-02-21T15:31:51;20.90;99.90
5940;DHT22;2995;-31.998;115.906;2024-02-21T15:34:23;20.90;99.90
5940;DHT22;2995;-31.998;115.906;2024-02-21T15:36:56;20.90;99.90
5940;DHT22;2995;-31.998;115.906;2024-02-21T15:39:27;20.80;99.90
5940;DHT22;2995;-31.998;115.906;2024-02-21T15:41:59;20.80;99.90
5940;DHT22;2995;-31.998;115.906;2024-02-21T15:44:30;20.70;99.90